Fleming, New York
Current Conditions -  °F | °C
As of 5:03 AM on Sunday 25 Jan 2015 (Local Time) from KSYR Reporting Station
Light Snow Light Snow  
Wind Chill: 15°   Ceiling: 2800
Heat Index: 28°   Visibility: 9mi
Dew Point: 21°   Wind: 18mph
Humidity: 75%   Direction: 290°WNW
Pressure: 29.59"   Gusts: 35mph
Location:  42.9235°N, 76.5525°W
Report Text: KSYR 251003Z 29016G30KT 9SM -SN BLSN BKN028 BKN032 OVC045 M02/M06 A2959 RMK AO2 PK WND 28029/0957 P0000 T10221061 $
Loading
Personal Weather Stations






























Interactive Weather Map New forecast layout! Learn more

10-Day Weather Forecast

Advertisements
Track Severe Weather on mobile